Time;durP1;ratioP1;P1;durP2;ratioP2;P2;SDS_P1;SDS_P2;PMS_P1;PMS_P2;Temp;Humidity;BMP_temperature;BMP_pressure;BME280_temperature;BME280_humidity;BME280_pressure;Samples;Min_cycle;Max_cycle;Signal;HPM_P1;HPM_P2
2021/05/20 00:00:28;;;;;;;2.30;1.80;;;;;;;7.45;88.47;99714.34;5013525;28;20034;-58
2021/05/20 00:02:54;;;;;;;3.45;1.80;;;;;;;7.43;88.49;99719.88;5013864;28;20029;-58
2021/05/20 00:05:19;;;;;;;2.88;1.88;;;;;;;7.43;88.50;99719.88;5013393;28;20029;-58
2021/05/20 00:07:45;;;;;;;4.97;2.10;;;;;;;7.43;88.43;99719.88;5013737;28;20088;-58
2021/05/20 00:10:11;;;;;;;2.42;1.90;;;;;;;7.43;88.51;99725.22;5012037;28;20038;-58
2021/05/20 00:12:36;;;;;;;2.75;1.98;;;;;;;7.44;88.92;99732.19;4996121;28;20092;-58
2021/05/20 00:15:04;;;;;;;3.78;2.08;;;;;;;7.37;88.78;99731.41;5012959;28;20116;-58
2021/05/20 00:17:29;;;;;;;4.55;2.00;;;;;;;7.42;88.91;99733.44;5012391;28;20025;-59
2021/05/20 00:19:54;;;;;;;2.33;1.88;;;;;;;7.44;88.68;99721.53;5013777;28;20026;-60
2021/05/20 00:22:20;;;;;;;2.72;1.90;;;;;;;7.44;88.45;99729.53;5013217;28;20559;-59
2021/05/20 00:24:45;;;;;;;3.55;2.10;;;;;;;7.39;89.01;99739.16;4995993;28;20069;-59
2021/05/20 00:27:11;;;;;;;3.17;2.05;;;;;;;7.45;89.33;99736.50;5013211;28;20038;-59
2021/05/20 00:29:36;;;;;;;5.05;2.30;;;;;;;7.43;88.94;99733.22;5013481;28;20022;-58
2021/05/20 00:32:02;;;;;;;5.70;1.95;;;;;;;7.46;88.42;99740.81;5013154;28;20038;-59
2021/05/20 00:34:27;;;;;;;3.00;2.08;;;;;;;7.52;88.36;99739.16;5013587;28;20063;-59
2021/05/20 00:36:52;;;;;;;2.50;2.00;;;;;;;7.49;88.48;99739.56;5012953;28;20037;-59
2021/05/20 00:39:18;;;;;;;3.15;2.20;;;;;;;7.53;88.20;99740.78;5013548;28;20033;-59
2021/05/20 00:41:43;;;;;;;5.63;2.15;;;;;;;7.52;88.05;99745.28;5012934;28;20046;-59
2021/05/20 00:44:09;;;;;;;3.65;2.10;;;;;;;7.53;88.47;99749.59;5013400;28;20461;-59
2021/05/20 00:46:34;;;;;;;2.88;2.20;;;;;;;7.57;88.44;99748.16;4995230;28;20543;-59
2021/05/20 00:48:59;;;;;;;4.35;2.30;;;;;;;7.56;88.58;99751.03;5013148;28;20029;-59
2021/05/20 00:51:25;;;;;;;3.88;1.90;;;;;;;7.57;87.82;99747.34;5012717;28;20096;-58
2021/05/20 00:53:50;;;;;;;2.97;2.00;;;;;;;7.61;87.67;99750.41;5013407;28;20057;-58
2021/05/20 00:56:18;;;;;;;4.65;2.10;;;;;;;7.60;87.97;99746.09;5012791;28;20409;-58
2021/05/20 00:58:44;;;;;;;3.20;2.08;;;;;;;7.62;86.98;99749.38;4995502;28;20030;-58
2021/05/20 01:01:10;;;;;;;2.55;1.80;;;;;;;7.55;88.19;99742.19;4995260;28;20045;-59
2021/05/20 01:03:35;;;;;;;2.90;1.83;;;;;;;7.57;87.55;99737.47;5013065;28;20018;-59
2021/05/20 01:06:01;;;;;;;3.28;2.03;;;;;;;7.57;87.70;99748.16;5011503;28;20038;-59
2021/05/20 01:08:27;;;;;;;2.85;1.75;;;;;;;7.64;87.62;99747.28;5012780;28;20030;-59
2021/05/20 01:10:52;;;;;;;5.85;2.00;;;;;;;7.61;87.91;99742.38;5012773;28;20552;-59
2021/05/20 01:13:18;;;;;;;3.17;1.90;;;;;;;7.59;87.88;99739.09;5012935;28;20045;-58
2021/05/20 01:15:43;;;;;;;2.92;2.00;;;;;;;7.54;87.87;99745.09;5012559;28;20046;-59
2021/05/20 01:18:09;;;;;;;7.82;2.00;;;;;;;7.48;87.67;99746.72;5013001;28;20033;-59
2021/05/20 01:20:39;;;;;;;3.03;1.80;;;;;;;7.47;87.10;99745.09;5012644;28;20511;-58
2021/05/20 01:23:08;;;;;;;3.08;1.98;;;;;;;7.45;87.63;99747.16;5013242;28;20108;-58
2021/05/20 01:25:33;;;;;;;3.00;1.85;;;;;;;7.43;87.60;99753.72;5012326;28;20046;-59
2021/05/20 01:28:03;;;;;;;3.03;2.08;;;;;;;7.38;87.72;99749.03;5012831;28;20076;-59
2021/05/20 01:30:30;;;;;;;2.72;1.77;;;;;;;7.37;87.71;99755.41;4995477;28;20507;-59
2021/05/20 01:32:56;;;;;;;2.50;1.77;;;;;;;7.33;87.51;99754.16;5012852;28;20038;-59
2021/05/20 01:35:21;;;;;;;3.65;1.95;;;;;;;7.32;87.82;99760.53;5012384;28;20042;-59
2021/05/20 01:37:47;;;;;;;2.40;2.00;;;;;;;7.38;88.03;99758.88;5012917;28;20026;-59
2021/05/20 01:40:13;;;;;;;2.60;1.90;;;;;;;7.34;87.29;99758.47;5012368;28;20029;-59
2021/05/20 01:42:39;;;;;;;3.10;1.95;;;;;;;7.35;87.72;99765.44;4995175;28;20022;-59
2021/05/20 01:45:05;;;;;;;6.45;2.20;;;;;;;7.34;87.84;99769.16;5012426;28;20105;-59
2021/05/20 01:47:30;;;;;;;4.80;2.10;;;;;;;7.35;87.34;99763.59;5012581;28;20538;-59
2021/05/20 01:49:56;;;;;;;4.57;1.90;;;;;;;7.41;87.15;99769.13;5012751;28;20030;-59
2021/05/20 01:52:22;;;;;;;2.80;2.00;;;;;;;7.38;86.98;99766.88;5012098;28;20030;-59
2021/05/20 01:54:47;;;;;;;3.58;2.05;;;;;;;7.34;87.87;99767.28;5012737;28;20026;-59
2021/05/20 01:57:13;;;;;;;3.13;2.00;;;;;;;7.33;88.47;99770.16;5012184;28;20034;-59
2021/05/20 01:59:38;;;;;;;3.05;2.10;;;;;;;7.34;89.04;99769.97;5012530;28;20073;-59
2021/05/20 02:02:04;;;;;;;3.17;2.13;;;;;;;7.28;89.43;99769.97;4994697;28;20034;-59
2021/05/20 02:04:29;;;;;;;3.28;2.35;;;;;;;7.22;89.72;99770.81;5013091;28;20030;-59
2021/05/20 02:06:55;;;;;;;2.95;2.10;;;;;;;7.08;90.71;99776.13;5015725;28;20041;-59
2021/05/20 02:09:20;;;;;;;2.97;2.25;;;;;;;6.96;91.25;99777.78;5015823;28;20152;-59
2021/05/20 02:11:46;;;;;;;3.35;2.53;;;;;;;6.97;89.85;99774.09;5015587;28;20042;-59
2021/05/20 02:14:11;;;;;;;3.53;2.55;;;;;;;7.00;89.20;99776.34;5015839;28;20030;-59
2021/05/20 02:16:37;;;;;;;3.00;2.20;;;;;;;7.05;88.71;99781.88;5015145;28;20034;-59
2021/05/20 02:19:02;;;;;;;3.72;2.58;;;;;;;7.09;88.81;99793.78;5015650;28;20488;-59
2021/05/20 02:21:28;;;;;;;4.32;2.60;;;;;;;7.15;88.90;99791.31;5015564;28;20392;-59
2021/05/20 02:23:53;;;;;;;4.85;2.70;;;;;;;7.10;88.36;99795.41;5015734;28;20029;-59
2021/05/20 02:26:19;;;;;;;6.03;2.50;;;;;;;7.13;88.11;99800.31;5015304;28;20042;-59
2021/05/20 02:28:44;;;;;;;3.20;2.10;;;;;;;7.09;88.68;99793.78;5015721;28;20026;-59
2021/05/20 02:31:10;;;;;;;3.05;2.10;;;;;;;7.03;88.86;99791.09;5013370;28;20038;-59
2021/05/20 02:33:36;;;;;;;4.22;2.25;;;;;;;6.98;89.32;99789.06;5015816;28;20034;-59
2021/05/20 02:36:01;;;;;;;5.10;2.40;;;;;;;6.97;89.64;99789.28;5015186;28;20038;-58
2021/05/20 02:38:27;;;;;;;3.17;2.40;;;;;;;6.91;89.79;99790.91;5015432;28;20034;-59
2021/05/20 02:40:52;;;;;;;5.63;2.45;;;;;;;6.92;90.10;99797.88;5015086;28;20037;-59
2021/05/20 02:43:17;;;;;;;4.72;2.67;;;;;;;7.01;89.22;99796.63;4997890;28;20034;-59
2021/05/20 02:45:43;;;;;;;4.25;2.70;;;;;;;7.07;88.95;99790.50;5014889;28;20046;-59
2021/05/20 02:48:08;;;;;;;3.72;2.70;;;;;;;7.08;89.02;99796.66;5015544;28;20037;-59
2021/05/20 02:50:34;;;;;;;4.30;2.60;;;;;;;7.12;88.76;99788.03;4997323;28;20042;-59
2021/05/20 02:52:59;;;;;;;3.88;2.38;;;;;;;7.15;88.82;99788.66;5015202;28;20030;-59
2021/05/20 02:55:25;;;;;;;4.13;2.45;;;;;;;7.08;89.09;99792.13;5014754;28;20042;-59
2021/05/20 02:58:08;;;;;;;3.80;2.75;;;;;;;7.18;89.30;99796.22;5014942;28;20041;-59
2021/05/20 03:00:36;;;;;;;4.63;3.28;;;;;;;7.17;88.27;99790.09;4999645;28;20054;-58
2021/05/20 03:03:02;;;;;;;3.95;2.88;;;;;;;7.21;88.20;99785.16;5015052;28;20092;-59
2021/05/20 03:05:29;;;;;;;4.20;3.10;;;;;;;7.15;88.87;99783.31;5014700;28;20484;-59
2021/05/20 03:07:55;;;;;;;4.20;3.20;;;;;;;7.13;88.64;99786.19;5014844;28;20025;-59
2021/05/20 03:10:20;;;;;;;4.82;3.58;;;;;;;7.08;88.94;99789.47;5014190;28;20046;-58
2021/05/20 03:12:45;;;;;;;4.25;3.22;;;;;;;7.09;89.24;99792.97;5014813;28;20457;-59
2021/05/20 03:15:11;;;;;;;5.68;3.22;;;;;;;7.08;88.99;99792.13;5014319;28;20034;-59
2021/05/20 03:17:36;;;;;;;6.15;3.15;;;;;;;7.16;88.47;99792.94;5013750;28;20116;-59
2021/05/20 03:20:03;;;;;;;5.30;3.72;;;;;;;7.15;88.10;99802.78;5014382;28;20030;-58
2021/05/20 03:22:28;;;;;;;4.43;3.20;;;;;;;7.15;88.15;99799.31;5014633;28;20022;-59
2021/05/20 03:24:54;;;;;;;4.07;2.90;;;;;;;7.12;88.45;99798.69;5014637;28;20037;-59
2021/05/20 03:27:19;;;;;;;6.47;3.30;;;;;;;7.07;89.44;99795.81;5014078;28;20041;-59
2021/05/20 03:29:45;;;;;;;4.68;3.47;;;;;;;7.12;89.35;99804.03;5014503;28;20080;-59
2021/05/20 03:32:10;;;;;;;5.32;3.67;;;;;;;7.15;88.93;99808.13;5013986;28;20041;-59
2021/05/20 03:34:35;;;;;;;6.43;4.50;;;;;;;7.18;88.40;99815.69;5014503;28;20096;-59
2021/05/20 03:37:03;;;;;;;7.55;4.45;;;;;;;7.26;88.29;99814.66;5014022;28;20425;-59
2021/05/20 03:39:28;;;;;;;7.25;4.15;;;;;;;7.24;88.56;99816.72;5014190;28;20025;-59
2021/05/20 03:41:53;;;;;;;7.00;4.90;;;;;;;7.29;88.02;99811.63;5013978;28;20104;-59
2021/05/20 03:44:19;;;;;;;6.88;4.80;;;;;;;7.30;87.36;99810.59;5014175;28;20473;-59
2021/05/20 03:46:44;;;;;;;7.05;4.53;;;;;;;7.33;87.25;99823.50;5014000;28;20042;-59
2021/05/20 03:49:10;;;;;;;9.57;4.80;;;;;;;7.34;87.13;99817.16;5014280;28;20026;-59
2021/05/20 03:51:35;;;;;;;6.00;4.82;;;;;;;7.32;87.17;99819.19;5013739;28;20477;-59
2021/05/20 03:54:00;;;;;;;5.90;4.78;;;;;;;7.31;87.57;99818.38;5014137;28;20381;-60
2021/05/20 03:56:26;;;;;;;8.52;5.18;;;;;;;7.53;86.16;99810.94;5013584;28;20049;-59
2021/05/20 03:58:51;;;;;;;6.78;4.82;;;;;;;7.71;85.03;99817.47;5014261;28;20427;-59
2021/05/20 04:01:17;;;;;;;6.78;5.00;;;;;;;7.60;86.10;99815.47;5013468;28;20037;-59
2021/05/20 04:03:42;;;;;;;8.38;5.20;;;;;;;7.63;85.98;99821.19;5013882;28;20046;-59
2021/05/20 04:06:08;;;;;;;9.70;5.88;;;;;;;7.72;84.80;99824.47;5013409;28;20033;-59
2021/05/20 04:08:36;;;;;;;7.32;5.32;;;;;;;7.84;85.23;99838.81;5013342;28;20026;-58
2021/05/20 04:11:02;;;;;;;9.02;5.25;;;;;;;7.91;85.07;99841.44;5013423;28;20048;-58
2021/05/20 04:13:31;;;;;;;8.13;4.90;;;;;;;7.81;86.34;99833.88;5013985;28;20026;-59
2021/05/20 04:15:57;;;;;;;7.10;4.90;;;;;;;7.77;85.97;99835.34;5012196;28;20476;-59
2021/05/20 04:18:23;;;;;;;8.25;4.57;;;;;;;7.84;86.64;99844.16;5013644;28;20029;-59
2021/05/20 04:20:48;;;;;;;9.05;4.97;;;;;;;7.84;87.43;99845.97;5013182;28;20042;-59
2021/05/20 04:23:14;;;;;;;8.32;5.60;;;;;;;7.73;85.97;99842.91;5013666;28;20432;-59
2021/05/20 04:25:40;;;;;;;7.95;5.80;;;;;;;7.69;86.37;99851.56;5012199;28;20470;-59
2021/05/20 04:28:05;;;;;;;7.72;5.25;;;;;;;7.65;86.99;99847.66;5013387;28;20037;-58
2021/05/20 04:30:30;;;;;;;7.72;5.70;;;;;;;7.70;86.45;99847.88;5013320;28;20492;-59
2021/05/20 04:32:56;;;;;;;7.28;5.20;;;;;;;7.74;86.31;99843.75;5013522;28;20025;-58
2021/05/20 04:35:21;;;;;;;6.68;5.28;;;;;;;7.93;85.84;99850.06;5012875;28;20038;-59
2021/05/20 04:37:47;;;;;;;7.65;5.20;;;;;;;8.24;84.31;99852.03;5013275;28;20084;-60
2021/05/20 04:40:12;;;;;;;7.93;5.60;;;;;;;10.27;76.58;99858.00;5012893;28;20153;-59
2021/05/20 04:42:38;;;;;;;7.03;5.45;;;;;;;10.41;76.29;99861.34;5013283;28;20040;-59
2021/05/20 04:45:04;;;;;;;7.35;5.18;;;;;;;9.90;76.14;99858.00;5012913;28;20026;-60
2021/05/20 04:47:29;;;;;;;7.70;5.95;;;;;;;9.69;78.65;99860.09;5013145;28;20041;-59
2021/05/20 04:49:55;;;;;;;5.30;4.53;;;;;;;11.02;72.71;99854.94;5013441;28;20026;-59
2021/05/20 04:52:20;;;;;;;5.78;4.38;;;;;;;12.01;69.33;99857.81;5012643;28;20038;-59
2021/05/20 04:54:45;;;;;;;6.95;3.92;;;;;;;13.92;61.93;99860.84;5013539;28;20025;-59
2021/05/20 04:57:11;;;;;;;5.13;3.70;;;;;;;14.50;57.54;99863.16;5012893;28;20034;-60
2021/05/20 04:59:36;;;;;;;5.07;3.78;;;;;;;14.81;57.85;99873.25;5013237;28;20396;-60
2021/05/20 05:02:02;;;;;;;5.20;3.92;;;;;;;16.28;52.79;99862.97;5012944;28;20088;-60
2021/05/20 05:04:27;;;;;;;4.90;3.85;;;;;;;16.92;50.92;99870.75;5013363;28;20108;-60
2021/05/20 05:06:53;;;;;;;5.35;3.88;;;;;;;15.86;54.20;99877.38;5012749;28;20038;-60
2021/05/20 05:09:18;;;;;;;5.47;3.95;;;;;;;15.97;55.49;99879.03;5012972;28;20116;-60
2021/05/20 05:11:43;;;;;;;7.70;4.10;;;;;;;16.13;55.37;99888.06;5012769;28;20038;-60
2021/05/20 05:14:09;;;;;;;4.80;3.58;;;;;;;14.15;62.53;99891.34;5013315;28;20385;-59
2021/05/20 05:16:34;;;;;;;5.05;3.90;;;;;;;13.00;67.01;99889.00;5012825;28;20038;-60
2021/05/20 05:19:00;;;;;;;5.63;4.10;;;;;;;12.15;70.08;99890.59;4995350;28;20419;-60
2021/05/20 05:21:25;;;;;;;6.40;4.70;;;;;;;11.11;72.68;99887.63;5012547;28;20045;-60
2021/05/20 05:23:50;;;;;;;6.35;4.82;;;;;;;10.74;73.16;99890.41;5012931;28;20033;-59
2021/05/20 05:26:16;;;;;;;7.20;5.22;;;;;;;11.09;72.59;99887.03;5012681;28;20041;-59
2021/05/20 05:28:41;;;;;;;5.68;4.68;;;;;;;12.26;68.23;99887.06;5012925;28;20526;-60
2021/05/20 05:31:09;;;;;;;5.20;4.43;;;;;;;11.51;69.85;99885.13;5012704;28;20089;-59
2021/05/20 05:33:34;;;;;;;6.60;4.25;;;;;;;11.24;71.42;99890.09;5012906;28;20457;-59
2021/05/20 05:36:00;;;;;;;6.80;4.43;;;;;;;10.98;72.05;99892.16;5012473;28;20030;-59
2021/05/20 05:38:25;;;;;;;8.13;4.10;;;;;;;9.93;76.80;99900.41;5012683;28;20102;-60
2021/05/20 05:40:51;;;;;;;4.85;3.88;;;;;;;9.50;78.79;99901.22;5015203;28;20034;-59
2021/05/20 05:43:16;;;;;;;5.28;3.92;;;;;;;9.23;79.12;99901.41;5016523;28;20476;-59
2021/05/20 05:45:41;;;;;;;6.30;4.22;;;;;;;9.05;80.30;99906.69;5016086;28;20100;-59
2021/05/20 05:48:11;;;;;;;6.20;4.10;;;;;;;8.77;81.21;99902.53;5016495;28;20026;-59
2021/05/20 05:50:36;;;;;;;6.82;4.43;;;;;;;8.60;82.68;99906.75;5016167;28;20045;-59
2021/05/20 05:53:03;;;;;;;6.75;5.18;;;;;;;9.15;81.38;99915.06;4998646;28;20030;-59
2021/05/20 05:55:29;;;;;;;7.53;5.45;;;;;;;9.18;80.25;99906.59;5016231;28;20076;-59
2021/05/20 05:57:54;;;;;;;6.93;5.53;;;;;;;8.99;81.38;99895.03;5016205;28;20026;-59
2021/05/20 06:00:20;;;;;;;6.97;5.45;;;;;;;9.07;81.36;99901.97;5015918;28;20050;-59
2021/05/20 06:02:46;;;;;;;8.02;5.45;;;;;;;9.37;79.05;99896.81;5016359;28;20034;-59
2021/05/20 06:05:11;;;;;;;9.15;5.65;;;;;;;8.97;80.86;99896.28;4998244;28;20037;-60
2021/05/20 06:07:37;;;;;;;7.50;5.95;;;;;;;9.00;81.02;99893.97;5016121;28;20041;-60
2021/05/20 06:10:03;;;;;;;8.63;5.40;;;;;;;12.18;68.44;99895.50;5014298;28;20401;-60
2021/05/20 06:12:29;;;;;;;5.95;4.88;;;;;;;14.60;58.99;99904.63;5015782;28;20053;-60
2021/05/20 06:14:54;;;;;;;6.70;4.47;;;;;;;15.72;54.30;99909.44;5016124;28;20485;-60
2021/05/20 06:17:20;;;;;;;7.03;4.70;;;;;;;16.53;52.30;99908.25;5015462;28;20216;-58
2021/05/20 06:19:45;;;;;;;7.63;5.53;;;;;;;17.27;49.79;99917.09;5016016;28;20458;-60
2021/05/20 06:22:11;;;;;;;7.60;6.80;;;;;;;19.59;41.03;99909.44;5015601;28;20037;-58
2021/05/20 06:24:36;;;;;;;10.07;7.60;;;;;;;21.60;36.77;99914.00;5015960;28;20492;-58
2021/05/20 06:27:02;;;;;;;8.80;7.80;;;;;;;19.88;39.46;99913.28;5015338;28;20493;-59
2021/05/20 06:29:27;;;;;;;9.02;7.18;;;;;;;19.11;41.49;99906.53;4998238;28;20054;-58
2021/05/20 06:31:53;;;;;;;8.45;7.55;;;;;;;16.08;49.89;99902.38;5015381;28;20038;-58
2021/05/20 06:34:18;;;;;;;10.52;8.32;;;;;;;13.93;57.66;99904.81;5015691;28;20017;-59
2021/05/20 06:36:45;;;;;;;9.00;7.82;;;;;;;13.82;59.05;99907.31;5015195;28;20373;-58
2021/05/20 06:39:10;;;;;;;10.07;8.43;;;;;;;13.29;58.97;99910.53;5015684;28;20022;-58
2021/05/20 06:41:36;;;;;;;10.45;9.32;;;;;;;12.76;61.21;99912.53;5015159;28;20396;-58
2021/05/20 06:44:01;;;;;;;9.68;8.23;;;;;;;13.00;60.70;99907.84;5015560;28;20022;-58
2021/05/20 06:46:26;;;;;;;11.07;9.07;;;;;;;12.11;63.90;99915.50;5015010;28;20485;-60
2021/05/20 06:48:54;;;;;;;11.43;8.30;;;;;;;11.63;66.40;99920.00;5015429;28;20048;-60
2021/05/20 06:51:19;;;;;;;10.10;8.40;;;;;;;11.37;66.73;99914.03;5014663;28;20041;-60
2021/05/20 06:53:47;;;;;;;10.48;8.68;;;;;;;11.45;66.27;99916.38;5015568;28;20022;-59
2021/05/20 06:56:17;;;;;;;11.75;9.45;;;;;;;10.72;68.46;99919.31;5014950;28;20034;-59
2021/05/20 07:01:26;;;;;;;10.85;8.77;;;;;;;12.20;63.19;99919.44;5014756;28;20065;-59
2021/05/20 07:03:51;;;;;;;11.38;7.90;;;;;;;17.25;48.29;99928.22;5015074;28;20453;-59
2021/05/20 07:06:17;;;;;;;9.68;7.78;;;;;;;18.03;44.82;99929.81;5014502;28;20049;-59
2021/05/20 07:08:42;;;;;;;9.13;7.80;;;;;;;18.67;43.03;99930.94;4997172;28;20038;-59
2021/05/20 07:11:08;;;;;;;8.90;7.20;;;;;;;20.17;40.46;99932.31;5014463;28;20045;-59
2021/05/20 07:13:33;;;;;;;7.97;6.75;;;;;;;17.56;45.98;99925.50;5014951;28;20037;-59
2021/05/20 07:15:59;;;;;;;8.88;7.40;;;;;;;16.58;48.38;99921.81;5014401;28;20045;-59
2021/05/20 07:18:24;;;;;;;9.82;7.47;;;;;;;17.64;45.47;99923.06;5014618;28;20018;-59
2021/05/20 07:20:50;;;;;;;8.27;7.00;;;;;;;16.71;48.28;99926.72;5014590;28;20447;-59
2021/05/20 07:23:18;;;;;;;7.82;6.80;;;;;;;16.34;49.87;99926.84;5014832;28;20018;-59
2021/05/20 07:25:44;;;;;;;8.98;6.93;;;;;;;16.73;47.75;99929.16;5014357;28;20041;-59
2021/05/20 07:28:09;;;;;;;9.95;8.90;;;;;;;17.05;48.65;99926.28;5014778;28;20018;-59
2021/05/20 07:30:35;;;;;;;9.07;7.13;;;;;;;15.77;52.49;99927.56;5014150;28;20033;-59
2021/05/20 07:33:00;;;;;;;10.38;8.05;;;;;;;16.50;50.53;99920.41;4997039;28;20554;-59
2021/05/20 07:35:26;;;;;;;8.40;6.95;;;;;;;18.70;44.42;99919.56;5014267;28;20088;-59
2021/05/20 07:37:51;;;;;;;10.10;6.97;;;;;;;17.58;47.68;99928.78;5014539;28;20108;-59
2021/05/20 07:40:18;;;;;;;10.15;7.47;;;;;;;14.84;52.02;99924.03;5014016;28;20030;-59
2021/05/20 07:42:44;;;;;;;7.70;6.32;;;;;;;14.61;51.79;99927.00;5014410;28;20076;-59
2021/05/20 07:45:11;;;;;;;11.75;6.95;;;;;;;14.29;53.71;99924.97;5013943;28;20416;-59
2021/05/20 07:47:37;;;;;;;10.93;7.15;;;;;;;14.48;52.88;99930.03;5014324;28;20067;-59
2021/05/20 07:50:03;;;;;;;10.90;7.60;;;;;;;16.88;47.64;99931.13;5013867;28;20029;-60
2021/05/20 07:52:29;;;;;;;11.65;6.97;;;;;;;16.43;47.19;99930.66;5014212;28;20420;-59
2021/05/20 07:54:56;;;;;;;7.90;7.10;;;;;;;17.94;44.46;99934.19;5014147;28;20072;-59
2021/05/20 07:57:21;;;;;;;8.45;6.95;;;;;;;16.02;48.77;99933.13;5013669;28;20038;-59
2021/05/20 07:59:46;;;;;;;8.98;6.88;;;;;;;18.58;43.33;99944.31;5014169;28;20022;-59
2021/05/20 08:04:39;;;;;;;9.30;6.43;;;;;;;18.24;42.55;99946.84;5014365;28;20370;-60
2021/05/20 08:09:49;;;;;;;8.05;6.60;;;;;;;18.45;42.38;99947.63;4998636;28;20068;-59
2021/05/20 08:12:15;;;;;;;8.02;6.10;;;;;;;19.56;42.31;99942.63;5013255;28;20030;-59
2021/05/20 08:14:40;;;;;;;8.00;6.35;;;;;;;20.20;38.87;99942.59;5013726;28;20057;-59
2021/05/20 08:17:07;;;;;;;11.57;7.32;;;;;;;15.47;49.97;99937.84;5013412;28;20034;-59
2021/05/20 08:19:32;;;;;;;8.60;7.13;;;;;;;13.81;56.62;99934.53;5013601;28;20029;-59
2021/05/20 08:21:58;;;;;;;8.93;7.85;;;;;;;12.96;59.73;99930.94;5013383;28;20037;-59
2021/05/20 08:24:23;;;;;;;9.00;7.68;;;;;;;12.73;60.21;99927.28;5013716;28;20026;-59
2021/05/20 08:26:49;;;;;;;10.20;7.78;;;;;;;13.87;59.58;99925.44;5013211;28;20057;-59
2021/05/20 08:29:14;;;;;;;9.27;7.63;;;;;;;14.74;55.82;99926.59;5013627;28;20512;-59
2021/05/20 08:31:40;;;;;;;9.27;7.50;;;;;;;17.49;48.24;99920.34;5013023;28;20473;-59
2021/05/20 08:34:06;;;;;;;8.43;7.20;;;;;;;16.76;49.92;99923.22;5013535;28;20022;-59
2021/05/20 08:36:32;;;;;;;8.82;7.57;;;;;;;16.93;48.58;99918.41;4995549;28;20165;-59
2021/05/20 08:38:58;;;;;;;11.98;7.43;;;;;;;18.00;46.31;99930.38;5013403;28;20068;-59
2021/05/20 08:41:23;;;;;;;9.68;7.40;;;;;;;13.78;56.49;99930.47;5012984;28;20042;-60
2021/05/20 08:43:49;;;;;;;8.00;6.95;;;;;;;15.81;52.27;99926.78;4995708;28;20018;-60
2021/05/20 08:46:22;;;;;;;8.82;7.22;;;;;;;16.36;50.10;99913.84;5012828;28;20034;-60
2021/05/20 08:48:47;;;;;;;7.63;6.82;;;;;;;17.07;49.79;99923.31;5013451;28;20045;-60
2021/05/20 08:51:12;;;;;;;7.13;6.40;;;;;;;18.07;46.22;99926.28;5011792;28;20092;-60
2021/05/20 08:53:39;;;;;;;8.18;6.63;;;;;;;16.32;50.88;99920.88;4995633;28;20025;-60
2021/05/20 08:56:04;;;;;;;8.25;5.90;;;;;;;19.00;46.13;99920.50;5011673;28;20038;-60
2021/05/20 08:58:30;;;;;;;7.07;5.57;;;;;;;19.41;43.68;99923.72;5013156;28;20033;-58
2021/05/20 09:00:56;;;;;;;7.78;6.35;;;;;;;18.14;47.20;99922.47;5013041;28;20038;-60
2021/05/20 09:03:22;;;;;;;7.57;5.80;;;;;;;16.56;51.20;99913.13;5013132;28;20057;-58
2021/05/20 09:05:49;;;;;;;6.97;4.90;;;;;;;14.07;56.39;99910.63;5012863;28;20045;-59
2021/05/20 09:08:22;;;;;;;6.40;5.00;;;;;;;13.52;60.34;99909.56;4995834;28;20022;-59
2021/05/20 09:10:48;;;;;;;8.40;4.80;;;;;;;14.76;58.04;99912.88;4972445;28;20554;-59
2021/05/20 09:13:18;;;;;;;6.50;4.20;;;;;;;14.55;56.35;99909.13;4974193;28;20031;-59
2021/05/20 09:15:47;;;;;;;6.93;4.80;;;;;;;13.39;61.47;99908.00;4977913;28;20404;-59
2021/05/20 09:18:18;;;;;;;6.25;5.35;;;;;;;12.91;62.38;99903.94;4976806;28;20035;-59
2021/05/20 09:20:45;;;;;;;6.88;5.30;;;;;;;13.06;62.15;99904.19;4976361;28;20046;-59
2021/05/20 09:23:11;;;;;;;10.35;5.10;;;;;;;14.02;59.32;99906.78;4978001;28;20023;-58
2021/05/20 09:25:37;;;;;;;14.73;4.80;;;;;;;14.08;58.77;99901.47;4977747;28;20389;-58
2021/05/20 09:28:09;;;;;;;7.93;4.93;;;;;;;12.44;61.47;99902.22;4977975;28;20019;-59
2021/05/20 09:30:41;;;;;;;8.52;4.90;;;;;;;13.38;59.94;99909.09;4991679;28;20034;-58
2021/05/20 09:33:09;;;;;;;8.38;5.75;;;;;;;13.33;59.46;99906.31;4977848;28;20033;-59
2021/05/20 09:35:35;;;;;;;8.02;5.30;;;;;;;13.92;58.09;99911.25;4977398;28;20039;-59
2021/05/20 09:38:11;;;;;;;7.65;5.30;;;;;;;13.93;55.60;99905.63;4977695;28;20035;-59
2021/05/20 09:40:48;;;;;;;6.38;4.47;;;;;;;13.84;56.82;99911.66;4992201;28;20421;-59
2021/05/20 09:43:17;;;;;;;7.57;4.75;;;;;;;14.39;55.87;99911.59;4977734;28;20051;-59
2021/05/20 09:45:43;;;;;;;6.68;4.05;;;;;;;14.64;53.39;99907.63;4977284;28;20042;-59
2021/05/20 09:48:08;;;;;;;4.82;3.97;;;;;;;14.61;51.19;99900.03;4977466;28;20031;-59
2021/05/20 09:50:42;;;;;;;8.13;3.40;;;;;;;14.71;52.50;99891.25;4977391;28;20066;-59
2021/05/20 09:53:08;;;;;;;4.18;2.92;;;;;;;15.41;48.96;99887.56;4977551;28;20026;-59
2021/05/20 09:55:34;;;;;;;5.85;3.30;;;;;;;17.39;46.35;99888.66;4976974;28;20090;-59
2021/05/20 09:58:05;;;;;;;4.05;2.88;;;;;;;16.92;45.56;99878.84;4977405;28;20386;-59
2021/05/20 10:00:30;;;;;;;5.18;4.13;;;;;;;16.16;45.50;99877.53;4990543;28;20045;-59
2021/05/20 10:03:04;;;;;;;3.78;2.70;;;;;;;18.41;42.10;99884.13;4976039;28;20031;-59
2021/05/20 10:05:33;;;;;;;4.50;3.72;;;;;;;17.70;45.64;99883.22;4976925;28;20467;-59
2021/05/20 10:08:00;;;;;;;5.50;4.13;;;;;;;17.85;45.56;99875.09;4977338;28;20110;-59
2021/05/20 10:10:26;;;;;;;7.00;3.65;;;;;;;18.99;42.51;99869.97;5008286;28;20042;-59
2021/05/20 10:12:51;;;;;;;4.45;3.55;;;;;;;18.10;43.85;99873.41;4996641;28;20026;-59
2021/05/20 10:15:21;;;;;;;4.75;3.50;;;;;;;19.72;41.32;99872.66;4995952;28;20049;-59
2021/05/20 10:17:47;;;;;;;4.20;3.35;;;;;;;18.32;42.79;99870.31;4996251;28;20547;-59
2021/05/20 10:20:18;;;;;;;4.40;3.35;;;;;;;17.58;45.06;99864.53;4996195;28;20128;-59
2021/05/20 10:22:43;;;;;;;5.60;3.83;;;;;;;16.83;49.58;99863.44;5010874;28;20492;-59
2021/05/20 10:25:10;;;;;;;5.90;4.20;;;;;;;16.75;49.36;99864.75;4995154;28;20023;-59
2021/05/20 10:27:36;;;;;;;5.25;3.33;;;;;;;17.71;46.70;99865.84;4996116;28;20113;-59
2021/05/20 10:30:02;;;;;;;5.28;3.33;;;;;;;17.16;46.42;99862.13;4995780;28;20121;-59
2021/05/20 10:32:28;;;;;;;4.55;3.22;;;;;;;17.98;47.73;99864.75;4996173;28;20017;-59
2021/05/20 10:35:00;;;;;;;4.38;3.03;;;;;;;17.36;44.13;99862.09;4994946;28;20445;-59
2021/05/20 10:37:37;;;;;;;4.65;3.20;;;;;;;17.69;46.34;99854.47;4995552;28;20093;-59
2021/05/20 10:40:04;;;;;;;3.97;2.90;;;;;;;16.92;47.84;99857.19;4994364;28;20018;-59
2021/05/20 10:42:34;;;;;;;4.63;2.92;;;;;;;18.17;45.90;99852.22;4995887;28;20026;-60
2021/05/20 10:45:22;;;;;;;5.47;3.00;;;;;;;17.58;46.59;99869.94;4996227;28;20177;-59
2021/05/20 10:48:07;;;;;;;4.30;3.00;;;;;;;18.07;44.65;99854.94;4995561;28;20379;-59
2021/05/20 10:50:51;;;;;;;4.13;2.80;;;;;;;17.88;44.02;99846.59;4995245;28;20125;-59
2021/05/20 10:53:48;;;;;;;4.03;2.70;;;;;;;17.19;44.20;99848.81;4995884;28;20106;-59
2021/05/20 10:56:13;;;;;;;4.22;3.00;;;;;;;17.13;46.32;99852.63;4987153;28;20127;-59
2021/05/20 10:58:39;;;;;;;4.03;2.88;;;;;;;16.51;46.97;99846.28;4995610;28;20133;-60
2021/05/20 11:01:08;;;;;;;6.53;3.00;;;;;;;15.76;49.84;99851.09;4995168;28;20035;-59
2021/05/20 11:03:46;;;;;;;4.05;2.95;;;;;;;16.31;48.84;99841.63;5010723;28;20037;-59
2021/05/20 11:06:14;;;;;;;8.00;3.25;;;;;;;18.20;45.24;99850.84;4995092;28;20401;-59
2021/05/20 11:08:42;;;;;;;4.32;2.55;;;;;;;18.32;43.53;99841.28;4997876;28;20381;-59
2021/05/20 11:11:19;;;;;;;3.92;2.53;;;;;;;18.29;44.15;99836.41;5014576;28;20157;-59
2021/05/20 11:13:45;;;;;;;3.40;2.47;;;;;;;18.24;43.29;99828.28;5014808;28;20029;-59
2021/05/20 11:16:15;;;;;;;4.13;2.45;;;;;;;18.81;41.45;99825.28;5014429;28;20062;-60
2021/05/20 11:18:40;;;;;;;5.47;2.40;;;;;;;17.73;42.24;99817.59;4997255;28;20036;-59
2021/05/20 11:21:06;;;;;;;3.90;2.50;;;;;;;18.19;39.91;99813.94;5014483;28;20307;-59
2021/05/20 11:23:32;;;;;;;3.10;2.10;;;;;;;18.94;40.52;99814.56;5014933;28;20022;-59
2021/05/20 11:26:09;;;;;;;2.88;2.03;;;;;;;19.02;41.17;99802.31;5014319;28;20477;-59
2021/05/20 11:28:41;;;;;;;3.17;2.00;;;;;;;19.31;39.72;99809.66;5014641;28;20022;-59
2021/05/20 11:31:06;;;;;;;3.15;1.90;;;;;;;19.48;36.96;99812.75;5013923;28;20088;-59
2021/05/20 11:33:46;;;;;;;3.58;1.98;;;;;;;19.43;36.84;99820.97;5014508;28;20026;-59
2021/05/20 11:36:13;;;;;;;5.05;2.70;;;;;;;19.44;37.96;99816.34;5014097;28;20080;-59
2021/05/20 11:38:53;;;;;;;3.70;2.25;;;;;;;18.58;40.75;99816.72;4996169;28;20030;-59
2021/05/20 11:41:19;;;;;;;2.80;2.20;;;;;;;18.25;40.57;99810.94;5014113;28;20513;-60